createdAt,value
2022-12-31T00:05:00.688Z,4.80
2022-12-31T00:10:04.661Z,4.92
2022-12-31T00:15:07.906Z,4.98
2022-12-31T00:20:11.655Z,5.08
2022-12-31T00:25:14.452Z,5.16
2022-12-31T00:30:17.340Z,5.16
2022-12-31T00:35:20.160Z,5.20
2022-12-31T00:40:23.063Z,5.31
2022-12-31T00:45:25.967Z,5.41
2022-12-31T00:50:28.768Z,5.42
2022-12-31T00:55:31.587Z,5.41
2022-12-31T01:00:34.372Z,5.36
2022-12-31T01:05:38.415Z,5.28
2022-12-31T01:11:00.655Z,5.19
2022-12-31T01:16:12.159Z,5.14
2022-12-31T01:21:15.885Z,5.10
2022-12-31T01:26:19.681Z,5.12
2022-12-31T01:31:24.317Z,5.04
2022-12-31T01:36:29.859Z,4.94
2022-12-31T01:41:35.604Z,4.99
2022-12-31T01:46:52.319Z,5.34
2022-12-31T01:52:00.467Z,5.73
2022-12-31T01:57:05.357Z,5.91
2022-12-31T02:02:08.451Z,5.85
2022-12-31T02:07:12.191Z,5.67
2022-12-31T02:12:15.852Z,5.47
2022-12-31T02:17:37.499Z,5.35
2022-12-31T02:23:13.593Z,5.32
2022-12-31T02:28:29.184Z,5.43
2022-12-31T02:33:52.556Z,5.56
2022-12-31T02:38:57.610Z,5.76
2022-12-31T02:44:00.726Z,6.08
2022-12-31T02:49:45.324Z,6.34
2022-12-31T02:55:11.507Z,6.45
2022-12-31T03:00:35.803Z,6.49
2022-12-31T03:05:43.447Z,6.50
2022-12-31T03:10:46.183Z,6.48
2022-12-31T03:15:49.586Z,6.47
2022-12-31T03:21:11.343Z,6.48
2022-12-31T03:26:14.076Z,6.54
2022-12-31T03:31:16.981Z,6.61
2022-12-31T03:36:19.855Z,6.67
2022-12-31T03:41:22.663Z,6.71
2022-12-31T03:46:25.459Z,6.74
2022-12-31T03:51:28.296Z,6.75
2022-12-31T03:56:31.044Z,6.73
2022-12-31T04:01:33.988Z,6.73
2022-12-31T04:06:36.876Z,6.74
2022-12-31T04:11:39.678Z,6.77
2022-12-31T04:16:42.625Z,6.78
2022-12-31T04:21:45.475Z,6.78
2022-12-31T04:26:48.377Z,6.76
2022-12-31T04:31:51.318Z,6.74
2022-12-31T04:36:54.196Z,6.72
2022-12-31T04:41:56.948Z,6.67
2022-12-31T04:46:59.722Z,6.56
2022-12-31T04:52:03.361Z,6.42
2022-12-31T04:57:06.645Z,6.23
2022-12-31T05:02:10.056Z,6.08
2022-12-31T05:07:13.048Z,5.95
2022-12-31T05:12:15.847Z,5.86
2022-12-31T05:17:20.900Z,5.81
2022-12-31T05:22:29.648Z,5.75
2022-12-31T05:27:32.528Z,5.71
2022-12-31T05:32:35.687Z,5.68
2022-12-31T05:37:39.314Z,5.70
2022-12-31T05:42:42.064Z,5.72
2022-12-31T05:47:45.343Z,5.77
2022-12-31T05:52:48.299Z,5.85
2022-12-31T05:57:51.098Z,5.93
2022-12-31T06:02:53.964Z,6.01
2022-12-31T06:07:56.907Z,6.09
2022-12-31T06:12:59.903Z,6.16
2022-12-31T06:18:02.664Z,6.24
2022-12-31T06:23:06.144Z,6.32
2022-12-31T06:28:12.183Z,6.37
2022-12-31T06:33:20.781Z,6.40
2022-12-31T06:38:26.107Z,6.44
2022-12-31T06:43:28.832Z,6.48
2022-12-31T06:48:32.102Z,6.52
2022-12-31T06:53:34.908Z,6.58
2022-12-31T06:58:38.377Z,6.65
2022-12-31T07:03:58.754Z,6.71
2022-12-31T07:09:06.061Z,6.76
2022-12-31T07:14:30.885Z,6.82
2022-12-31T07:19:46.080Z,6.87
2022-12-31T07:24:49.475Z,6.92
2022-12-31T07:30:15.143Z,6.98
2022-12-31T07:35:35.449Z,7.05
2022-12-31T07:41:23.297Z,7.12
2022-12-31T07:46:39.538Z,7.20
2022-12-31T07:51:42.875Z,7.26
2022-12-31T07:56:46.133Z,7.32
2022-12-31T08:02:14.592Z,7.38
2022-12-31T08:07:47.355Z,7.48
2022-12-31T08:12:50.705Z,7.57
2022-12-31T08:17:54.424Z,7.63
2022-12-31T08:23:25.926Z,7.73
2022-12-31T08:29:17.468Z,7.92
2022-12-31T08:34:49.505Z,8.09
2022-12-31T08:40:11.231Z,8.17
2022-12-31T08:45:25.129Z,8.18
2022-12-31T08:50:29.219Z,8.15
2022-12-31T08:55:32.582Z,8.13
2022-12-31T09:00:36.572Z,8.12
2022-12-31T09:05:55.193Z,8.18
2022-12-31T09:11:22.948Z,8.27
2022-12-31T09:16:51.513Z,8.36
2022-12-31T09:21:55.456Z,8.55
2022-12-31T09:27:28.041Z,8.84
2022-12-31T09:33:07.764Z,8.96
2022-12-31T09:38:30.937Z,8.97
2022-12-31T09:43:45.263Z,8.93
2022-12-31T09:49:06.425Z,8.87
2022-12-31T09:54:39.706Z,8.87
2022-12-31T10:00:20.489Z,8.91
2022-12-31T10:06:01.117Z,8.87
2022-12-31T10:11:06.400Z,8.84
2022-12-31T10:16:18.653Z,8.84
2022-12-31T10:21:30.825Z,8.80
2022-12-31T10:26:41.865Z,8.74
2022-12-31T10:32:14.313Z,8.75
2022-12-31T10:37:38.518Z,8.95
2022-12-31T10:43:08.172Z,9.26
2022-12-31T10:48:41.687Z,9.21
2022-12-31T10:54:06.222Z,9.11
2022-12-31T10:59:09.301Z,9.01
2022-12-31T11:04:45.607Z,8.93
2022-12-31T11:10:13.539Z,8.87
2022-12-31T11:15:22.488Z,8.85
2022-12-31T11:21:03.437Z,8.85
2022-12-31T11:26:12.972Z,8.87
2022-12-31T11:31:15.752Z,8.90
2022-12-31T11:36:38.644Z,8.99
2022-12-31T11:42:27.099Z,9.03
2022-12-31T11:47:56.544Z,9.04
2022-12-31T11:53:24.039Z,9.11
2022-12-31T11:58:29.005Z,9.19
2022-12-31T12:03:32.176Z,9.28
2022-12-31T12:08:36.038Z,9.29
2022-12-31T12:13:38.914Z,9.27
2022-12-31T12:18:44.671Z,9.24
2022-12-31T12:24:05.309Z,9.24
2022-12-31T12:29:22.351Z,9.25
2022-12-31T12:34:28.529Z,9.29
2022-12-31T12:39:33.803Z,9.34
2022-12-31T12:44:36.704Z,9.44
2022-12-31T12:49:42.157Z,9.56
2022-12-31T12:55:06.953Z,9.64
2022-12-31T13:00:18.408Z,9.73
2022-12-31T13:05:43.199Z,9.78
2022-12-31T13:10:58.702Z,9.84
2022-12-31T13:16:18.462Z,9.91
2022-12-31T13:21:49.166Z,9.96
2022-12-31T13:26:58.697Z,10.04
2022-12-31T13:32:03.390Z,10.19
2022-12-31T13:37:22.473Z,10.33
2022-12-31T13:42:32.902Z,10.40
2022-12-31T13:47:43.088Z,10.43
2022-12-31T13:52:54.693Z,10.51
2022-12-31T13:58:19.617Z,10.67
2022-12-31T14:03:44.339Z,10.82
2022-12-31T14:08:47.141Z,10.80
2022-12-31T14:14:13.843Z,10.74
2022-12-31T14:19:16.661Z,10.70
2022-12-31T14:24:43.189Z,10.72
2022-12-31T14:29:51.081Z,10.76
2022-12-31T14:35:25.319Z,10.82
2022-12-31T14:40:43.886Z,10.91
2022-12-31T14:46:09.850Z,10.99
2022-12-31T14:51:13.591Z,11.08
2022-12-31T14:56:45.868Z,11.16
2022-12-31T15:01:48.816Z,11.27
2022-12-31T15:07:02.120Z,11.38
2022-12-31T15:12:19.247Z,11.49
2022-12-31T15:17:28.691Z,11.58
2022-12-31T15:22:40.374Z,11.66
2022-12-31T15:27:47.085Z,11.73
2022-12-31T15:32:50.009Z,11.79
2022-12-31T15:38:01.849Z,11.85
2022-12-31T15:43:21.387Z,11.88
2022-12-31T15:48:26.829Z,11.95
2022-12-31T15:53:34.648Z,12.05
2022-12-31T15:58:38.248Z,12.11
2022-12-31T16:03:48.108Z,12.15
2022-12-31T16:08:51.306Z,12.19
2022-12-31T16:13:56.566Z,12.25
2022-12-31T16:19:00.343Z,12.32
2022-12-31T16:24:06.459Z,12.41
2022-12-31T16:29:15.103Z,12.45
2022-12-31T16:34:22.222Z,12.44
2022-12-31T16:39:26.768Z,12.42
2022-12-31T16:44:30.660Z,12.40
2022-12-31T16:49:37.983Z,12.39
2022-12-31T16:54:46.984Z,12.39
2022-12-31T16:59:54.830Z,12.41
2022-12-31T17:04:57.751Z,12.47
2022-12-31T17:10:15.617Z,12.53
2022-12-31T17:15:26.603Z,12.58
2022-12-31T17:20:32.814Z,12.62
2022-12-31T17:25:38.666Z,12.65
2022-12-31T17:30:41.663Z,12.67
2022-12-31T17:35:45.655Z,12.65
2022-12-31T17:41:05.424Z,12.56
2022-12-31T17:46:16.905Z,12.43
2022-12-31T17:51:24.154Z,12.36
2022-12-31T17:56:27.555Z,12.35
2022-12-31T18:01:31.251Z,12.40
2022-12-31T18:06:34.112Z,12.46
2022-12-31T18:11:38.330Z,12.46
2022-12-31T18:16:41.840Z,12.45
2022-12-31T18:21:45.136Z,12.41
2022-12-31T18:26:47.848Z,12.36
2022-12-31T18:31:50.900Z,12.31
2022-12-31T18:36:53.763Z,12.30
2022-12-31T18:41:56.626Z,12.25
2022-12-31T18:46:59.429Z,12.17
2022-12-31T18:52:02.153Z,12.12
2022-12-31T18:57:04.877Z,12.07
2022-12-31T19:02:15.856Z,12.02
2022-12-31T19:07:18.740Z,11.98
2022-12-31T19:12:21.628Z,11.95
2022-12-31T19:17:24.531Z,11.93
2022-12-31T19:22:27.284Z,11.91
2022-12-31T19:27:30.001Z,11.90
2022-12-31T19:32:32.697Z,11.93
2022-12-31T19:37:35.632Z,11.97
2022-12-31T19:42:38.436Z,12.04
2022-12-31T19:47:41.236Z,12.08
2022-12-31T19:52:45.616Z,12.12
2022-12-31T19:57:49.007Z,12.13
2022-12-31T20:02:51.956Z,12.17
2022-12-31T20:07:55.003Z,12.19
2022-12-31T20:12:58.516Z,12.24
2022-12-31T20:18:01.400Z,12.28
2022-12-31T20:23:04.199Z,12.31
2022-12-31T20:28:07.007Z,12.32
2022-12-31T20:33:12.136Z,12.34
2022-12-31T20:38:19.288Z,12.37
2022-12-31T20:43:22.060Z,12.40
2022-12-31T20:48:24.817Z,12.41
2022-12-31T20:53:28.037Z,12.44
2022-12-31T20:58:31.006Z,12.46
2022-12-31T21:09:01.309Z,12.46
2022-12-31T21:14:04.910Z,12.43
2022-12-31T21:19:07.589Z,12.41
2022-12-31T21:24:10.853Z,12.42
2022-12-31T21:29:13.590Z,12.43
2022-12-31T21:34:16.840Z,12.48
2022-12-31T21:39:19.635Z,12.59
2022-12-31T21:44:24.625Z,12.74
2022-12-31T21:49:27.321Z,12.83
2022-12-31T21:54:48.546Z,12.88
2022-12-31T22:00:40.332Z,12.95
2022-12-31T22:05:32.625Z,13.02
2022-12-31T22:10:37.409Z,13.09
2022-12-31T22:15:45.980Z,13.13
2022-12-31T22:20:49.027Z,13.18
2022-12-31T22:25:51.826Z,13.23
2022-12-31T22:30:54.683Z,13.28
2022-12-31T22:36:03.290Z,13.32
2022-12-31T22:41:10.905Z,13.34
2022-12-31T22:46:16.530Z,13.36
2022-12-31T22:51:20.285Z,13.40
2022-12-31T22:56:23.009Z,13.42
2022-12-31T23:01:25.780Z,13.43
2022-12-31T23:06:29.293Z,13.49
2022-12-31T23:11:34.456Z,13.55
2022-12-31T23:16:56.169Z,13.63
2022-12-31T23:22:17.629Z,13.71
2022-12-31T23:27:20.314Z,13.84
2022-12-31T23:32:23.146Z,13.97
2022-12-31T23:37:25.901Z,14.09
2022-12-31T23:42:28.675Z,14.19
2022-12-31T23:47:31.625Z,14.23
2022-12-31T23:52:34.333Z,14.29
2022-12-31T23:57:37.564Z,14.37
